Time;durP1;ratioP1;P1;durP2;ratioP2;P2;SDS_P1;SDS_P2;PMS_P1;PMS_P2;Temp;Humidity;BMP_temperature;BMP_pressure;BME280_temperature;BME280_humidity;BME280_pressure;Samples;Min_cycle;Max_cycle;Signal;HPM_P1;HPM_P2
2021/04/01 00:01:23;;;;;;;15.45;7.07;;;14.50;59.00;;;;;;5091308;28;20044;-74
2021/04/01 00:03:49;;;;;;;12.85;6.55;;;14.50;59.10;;;;;;5094308;28;20142;-73
2021/04/01 00:06:16;;;;;;;12.63;6.75;;;14.50;59.20;;;;;;5093006;28;20052;-73
2021/04/01 00:08:43;;;;;;;13.13;7.07;;;14.50;59.30;;;;;;5090400;28;20039;-74
2021/04/01 00:11:13;;;;;;;12.90;6.30;;;14.50;59.40;;;;;;5093283;28;20750;-74
2021/04/01 00:13:40;;;;;;;13.20;6.57;;;14.50;59.50;;;;;;5093024;28;20127;-73
2021/04/01 00:16:07;;;;;;;13.30;7.00;;;14.50;59.50;;;;;;5092629;28;20036;-73
2021/04/01 00:18:35;;;;;;;11.25;6.35;;;14.50;59.60;;;;;;5094116;28;20111;-73
2021/04/01 00:21:03;;;;;;;15.95;7.80;;;14.50;59.70;;;;;;5093955;28;20036;-73
2021/04/01 00:23:29;;;;;;;13.02;6.65;;;14.50;59.80;;;;;;5068262;28;20044;-73
2021/04/01 00:25:56;;;;;;;13.52;6.45;;;14.50;59.80;;;;;;5092664;28;20040;-73
2021/04/01 00:28:23;;;;;;;14.10;6.72;;;14.60;60.00;;;;;;5093237;28;20558;-73
2021/04/01 00:30:50;;;;;;;11.90;6.60;;;14.60;60.10;;;;;;5092958;28;20529;-73
2021/04/01 00:33:17;;;;;;;12.02;6.50;;;14.50;60.10;;;;;;5093983;28;20052;-73
2021/04/01 00:35:43;;;;;;;13.45;6.85;;;14.50;60.20;;;;;;5093918;28;20036;-74
2021/04/01 00:38:10;;;;;;;13.85;7.70;;;14.50;60.40;;;;;;5075227;28;20778;-73
2021/04/01 00:40:37;;;;;;;13.27;6.50;;;14.60;60.40;;;;;;5093716;28;20050;-74
2021/04/01 00:43:04;;;;;;;12.50;6.55;;;14.60;60.50;;;;;;5091266;28;20047;-74
2021/04/01 00:45:30;;;;;;;15.15;7.15;;;14.50;60.50;;;;;;5093584;28;20032;-74
2021/04/01 00:47:57;;;;;;;13.38;6.35;;;14.50;60.70;;;;;;5079330;28;20605;-74
2021/04/01 00:50:27;;;;;;;12.77;6.15;;;14.50;60.80;;;;;;5088113;28;20036;-74
2021/04/01 00:52:54;;;;;;;12.15;6.28;;;14.50;60.80;;;;;;5093468;28;20068;-74
2021/04/01 00:55:22;;;;;;;14.18;6.60;;;14.50;60.80;;;;;;5091220;28;20499;-74
2021/04/01 00:57:52;;;;;;;10.63;5.32;;;14.50;60.90;;;;;;5092273;28;20442;-69
2021/04/01 01:00:23;;;;;;;11.38;5.78;;;14.40;61.00;;;;;;5091937;28;20136;-69
2021/04/01 01:02:50;;;;;;;13.38;6.20;;;14.40;61.10;;;;;;5093739;28;20040;-69
2021/04/01 01:05:18;;;;;;;12.80;6.50;;;14.40;61.20;;;;;;5075298;28;20126;-69
2021/04/01 01:07:45;;;;;;;12.80;7.25;;;14.40;61.30;;;;;;5093254;28;20043;-69
2021/04/01 01:10:18;;;;;;;11.32;6.38;;;14.40;61.40;;;;;;5092373;28;20055;-69
2021/04/01 01:12:45;;;;;;;10.45;5.47;;;14.40;61.50;;;;;;5092383;28;20442;-69
2021/04/01 01:15:13;;;;;;;10.90;5.78;;;14.40;61.60;;;;;;5093434;28;20047;-69
2021/04/01 01:17:40;;;;;;;11.80;5.47;;;14.30;61.60;;;;;;5074442;28;20047;-69
2021/04/01 01:20:10;;;;;;;12.63;6.30;;;14.30;61.70;;;;;;5075795;28;20040;-73
2021/04/01 01:22:41;;;;;;;12.55;6.40;;;14.30;61.90;;;;;;5091828;28;20036;-74
2021/04/01 01:25:10;;;;;;;13.45;6.82;;;14.30;62.00;;;;;;5092076;28;20055;-74
2021/04/01 01:27:38;;;;;;;13.30;7.00;;;14.30;62.10;;;;;;5069866;28;20067;-73
2021/04/01 01:30:08;;;;;;;13.30;6.80;;;14.20;62.20;;;;;;5092252;28;20480;-74
2021/04/01 01:32:38;;;;;;;12.80;7.25;;;14.20;62.30;;;;;;5098494;28;20415;-75
2021/04/01 01:35:15;;;;;;;12.10;5.80;;;14.20;62.40;;;;;;5092360;28;20500;-74
2021/04/01 01:37:49;;;;;;;12.25;6.20;;;14.20;62.50;;;;;;5106730;28;20403;-74
2021/04/01 01:40:16;;;;;;;11.32;5.70;;;14.10;62.40;;;;;;5077833;28;20495;-73
2021/04/01 01:42:43;;;;;;;13.68;5.68;;;14.10;62.40;;;;;;5092790;28;20047;-74
2021/04/01 01:45:10;;;;;;;12.68;5.90;;;14.10;62.50;;;;;;5091602;28;20051;-74
2021/04/01 01:47:36;;;;;;;11.98;6.47;;;14.10;62.60;;;;;;5091071;28;20524;-74
2021/04/01 01:50:04;;;;;;;12.43;6.55;;;14.10;62.60;;;;;;5092675;28;20044;-74
2021/04/01 01:52:31;;;;;;;11.50;6.35;;;14.10;62.60;;;;;;5092901;28;20040;-74
2021/04/01 01:54:57;;;;;;;11.52;6.05;;;14.10;62.60;;;;;;5091484;28;20757;-74
2021/04/01 01:57:24;;;;;;;12.13;6.53;;;14.10;62.70;;;;;;5074855;28;20068;-74
2021/04/01 01:59:50;;;;;;;12.95;6.05;;;14.10;62.90;;;;;;5074873;28;20048;-74
2021/04/01 02:02:17;;;;;;;10.70;5.55;;;14.10;62.90;;;;;;5090558;28;20036;-74
2021/04/01 02:04:43;;;;;;;11.40;6.15;;;14.10;62.90;;;;;;5090558;28;20552;-74
2021/04/01 02:07:10;;;;;;;12.02;6.40;;;14.10;63.00;;;;;;5071078;28;20049;-74
2021/04/01 02:09:37;;;;;;;13.77;6.50;;;14.10;63.00;;;;;;5080811;28;20111;-74
2021/04/01 02:12:04;;;;;;;12.30;6.03;;;14.10;63.00;;;;;;5072958;28;20044;-73
2021/04/01 02:14:30;;;;;;;12.43;5.93;;;14.10;63.00;;;;;;5092166;28;20368;-74
2021/04/01 02:16:57;;;;;;;14.73;8.02;;;14.10;63.00;;;;;;5092764;28;20044;-74
2021/04/01 02:19:23;;;;;;;12.80;6.82;;;14.10;62.90;;;;;;5074233;28;20040;-74
2021/04/01 02:21:51;;;;;;;16.00;7.13;;;14.10;62.80;;;;;;5092132;28;20036;-74
2021/04/01 02:24:17;;;;;;;13.70;6.65;;;14.10;62.60;;;;;;5092151;28;20044;-73
2021/04/01 02:26:44;;;;;;;14.48;6.35;;;14.20;62.60;;;;;;5085079;28;20048;-74
2021/04/01 02:29:10;;;;;;;14.98;7.72;;;14.20;62.70;;;;;;5092020;28;20123;-74
2021/04/01 02:31:37;;;;;;;12.88;6.50;;;14.20;62.70;;;;;;5090944;28;20510;-74
2021/04/01 02:34:03;;;;;;;14.15;6.30;;;14.20;62.70;;;;;;5090773;28;20148;-74
2021/04/01 02:36:30;;;;;;;15.90;7.53;;;14.20;62.70;;;;;;5091590;28;20047;-74
2021/04/01 02:38:56;;;;;;;16.20;7.28;;;14.20;62.60;;;;;;5087763;28;20122;-75
2021/04/01 02:41:23;;;;;;;15.55;8.02;;;14.20;62.60;;;;;;5092192;28;20506;-75
2021/04/01 02:43:50;;;;;;;14.98;7.75;;;14.20;62.60;;;;;;5089902;28;20040;-74
2021/04/01 02:46:16;;;;;;;13.70;6.47;;;14.20;62.70;;;;;;5076792;28;20050;-74
2021/04/01 02:48:43;;;;;;;16.48;7.10;;;14.10;62.70;;;;;;5086327;28;20044;-74
2021/04/01 02:51:09;;;;;;;14.30;6.95;;;14.10;62.70;;;;;;5077944;28;20049;-74
2021/04/01 02:53:36;;;;;;;17.33;6.78;;;14.10;62.70;;;;;;5071863;28;20048;-74
2021/04/01 02:56:02;;;;;;;13.73;6.95;;;14.10;62.70;;;;;;5091331;28;20564;-74
2021/04/01 02:58:29;;;;;;;14.18;6.75;;;14.10;62.60;;;;;;5089769;28;20117;-73
2021/04/01 03:00:56;;;;;;;16.35;7.43;;;14.10;62.50;;;;;;5082562;28;20064;-74
2021/04/01 03:05:49;;;;;;;15.05;7.28;;;14.20;62.20;;;;;;5088231;28;20043;-74
2021/04/01 03:08:15;;;;;;;17.67;7.57;;;14.20;61.90;;;;;;5078857;28;20045;-74
2021/04/01 03:10:42;;;;;;;14.55;7.43;;;14.20;61.80;;;;;;5088849;28;20081;-74
2021/04/01 03:13:10;;;;;;;19.35;8.75;;;14.20;61.60;;;;;;5073354;28;20044;-74
2021/04/01 03:15:43;;;;;;;18.52;9.35;;;14.30;61.40;;;;;;5078019;28;20040;-74
2021/04/01 03:18:11;;;;;;;18.08;8.02;;;14.20;61.30;;;;;;5070430;28;20041;-74
2021/04/01 03:20:38;;;;;;;14.90;7.72;;;14.20;61.30;;;;;;5067325;28;20072;-74
2021/04/01 03:23:04;;;;;;;16.63;7.80;;;14.10;61.30;;;;;;5077660;28;20111;-74
2021/04/01 03:25:31;;;;;;;15.43;7.40;;;14.10;61.40;;;;;;5090234;28;20044;-74
2021/04/01 03:27:57;;;;;;;13.70;7.20;;;14.00;61.50;;;;;;5070170;28;20090;-74
2021/04/01 03:30:24;;;;;;;14.13;6.97;;;13.90;61.60;;;;;;5090582;28;20055;-74
2021/04/01 03:32:50;;;;;;;17.70;8.20;;;13.90;61.70;;;;;;5082414;28;20047;-74
2021/04/01 03:35:21;;;;;;;15.48;7.45;;;13.80;61.80;;;;;;5072450;28;20063;-74
2021/04/01 03:37:50;;;;;;;18.15;8.75;;;13.70;61.70;;;;;;5082128;28;20102;-74
2021/04/01 03:40:17;;;;;;;15.65;6.93;;;13.70;61.80;;;;;;5083389;28;20040;-73
2021/04/01 03:42:43;;;;;;;14.65;6.55;;;13.60;61.90;;;;;;5084924;28;20075;-74
2021/04/01 03:45:11;;;;;;;15.10;7.35;;;13.50;62.00;;;;;;5084644;28;20051;-74
2021/04/01 03:47:39;;;;;;;17.90;7.00;;;13.50;62.20;;;;;;5090515;28;20043;-74
2021/04/01 03:50:07;;;;;;;14.95;6.82;;;13.40;62.30;;;;;;5087520;28;20048;-74
2021/04/01 03:52:34;;;;;;;13.52;6.50;;;13.30;62.50;;;;;;5090778;28;20098;-74
2021/04/01 03:55:11;;;;;;;13.95;7.13;;;13.20;62.60;;;;;;5086107;28;20079;-74
2021/04/01 03:57:39;;;;;;;15.43;7.90;;;13.20;62.80;;;;;;5071545;28;20033;-74
2021/04/01 04:05:36;;;;;;;14.45;7.07;;;12.90;63.10;;;;;;5083677;28;20488;-74
2021/04/01 04:08:14;;;;;;;15.77;7.43;;;12.90;63.40;;;;;;5076966;28;20105;-74
2021/04/01 04:10:47;;;;;;;14.00;6.78;;;12.80;63.60;;;;;;5082448;28;20041;-74
2021/04/01 04:13:37;;;;;;;13.32;6.60;;;12.70;63.80;;;;;;5065556;28;20047;-74
2021/04/01 04:16:04;;;;;;;14.43;7.05;;;12.60;64.00;;;;;;5081433;28;20040;-74
2021/04/01 04:18:31;;;;;;;13.82;6.93;;;12.50;64.10;;;;;;5085334;28;20063;-74
2021/04/01 04:20:58;;;;;;;12.93;6.38;;;12.50;64.30;;;;;;5088205;28;20097;-74
2021/04/01 04:23:25;;;;;;;13.07;6.57;;;12.40;64.40;;;;;;5076839;28;20040;-74
2021/04/01 04:25:57;;;;;;;14.00;6.97;;;12.40;64.50;;;;;;5081186;28;20089;-74
2021/04/01 04:28:37;;;;;;;12.23;6.68;;;12.30;64.60;;;;;;5082802;28;20055;-74
2021/04/01 04:31:04;;;;;;;14.18;6.90;;;12.30;64.70;;;;;;5071400;28;20533;-74
2021/04/01 04:33:32;;;;;;;15.30;7.28;;;12.30;64.70;;;;;;5086571;28;20503;-73
2021/04/01 04:35:59;;;;;;;12.48;5.95;;;12.30;64.80;;;;;;5090319;28;20047;-74
2021/04/01 04:38:27;;;;;;;15.23;7.25;;;12.20;64.80;;;;;;5083672;28;20044;-74
2021/04/01 04:40:56;;;;;;;14.98;7.45;;;12.20;64.90;;;;;;5084100;28;20396;-74
2021/04/01 04:43:24;;;;;;;12.52;5.80;;;12.20;65.00;;;;;;5081623;28;20044;-74
2021/04/01 04:45:52;;;;;;;11.18;5.82;;;12.10;65.10;;;;;;5087676;28;20093;-74
2021/04/01 04:48:19;;;;;;;13.95;7.13;;;12.10;65.10;;;;;;5087732;28;20119;-73
2021/04/01 04:50:46;;;;;;;15.52;6.32;;;12.10;65.10;;;;;;5083367;28;20040;-74
2021/04/01 04:53:14;;;;;;;14.10;6.82;;;12.10;65.10;;;;;;5073566;28;20101;-74
2021/04/01 04:55:47;;;;;;;12.25;6.32;;;12.10;65.20;;;;;;5084122;28;20044;-74
2021/04/01 04:58:20;;;;;;;12.98;5.82;;;12.10;65.40;;;;;;5073130;28;20116;-74
2021/04/01 05:01:10;;;;;;;11.68;6.10;;;12.00;65.40;;;;;;5080954;28;20055;-74
2021/04/01 05:06:46;;;;;;;12.18;5.78;;;12.00;65.70;;;;;;5076454;28;20510;-74
2021/04/01 05:09:12;;;;;;;14.68;6.45;;;11.90;65.80;;;;;;5073342;28;20040;-74
2021/04/01 05:11:39;;;;;;;15.20;6.82;;;11.90;65.90;;;;;;5076794;28;20044;-74
2021/04/01 05:14:05;;;;;;;13.80;6.22;;;11.80;65.90;;;;;;5061663;28;20039;-69
2021/04/01 05:16:32;;;;;;;13.75;7.18;;;11.90;66.10;;;;;;5084058;28;20044;-75
2021/04/01 05:19:01;;;;;;;14.57;6.25;;;11.80;66.10;;;;;;5074898;28;20094;-74
2021/04/01 05:21:55;;;;;;;12.98;6.40;;;11.80;66.20;;;;;;5079834;28;20055;-74
2021/04/01 05:24:24;;;;;;;11.52;6.15;;;11.80;66.30;;;;;;5085690;28;20036;-74
2021/04/01 05:29:29;;;;;;;14.15;6.72;;;11.70;66.50;;;;;;5080613;28;20071;-74
2021/04/01 05:31:56;;;;;;;;;;;11.70;66.60;;;;;;5075308;28;20388;-73
2021/04/01 05:34:24;;;;;;;10.30;5.50;;;11.70;66.50;;;;;;5078057;28;19930;-69
2021/04/01 05:36:52;;;;;;;11.80;5.57;;;11.70;66.50;;;;;;5078490;28;20055;-69
2021/04/01 05:39:22;;;;;;;13.88;6.78;;;11.70;66.50;;;;;;5083509;28;20071;-69
2021/04/01 05:41:49;;;;;;;12.07;6.03;;;11.70;66.60;;;;;;5068677;28;20491;-69
2021/04/01 05:52:40;;;;;;;13.68;6.70;;;11.70;66.80;;;;;;5078672;28;20043;-69
2021/04/01 06:03:47;;;;;;;17.30;7.85;;;11.90;67.00;;;;;;5050548;28;20053;-69
2021/04/01 06:06:20;;;;;;;21.42;9.48;;;12.00;66.90;;;;;;5079147;28;20040;-69
2021/04/01 06:08:51;;;;;;;20.52;9.60;;;12.10;66.70;;;;;;5086444;28;20045;-69
2021/04/01 06:11:20;;;;;;;17.90;7.72;;;12.20;66.50;;;;;;5079313;28;20040;-69
2021/04/01 06:16:40;;;;;;;16.20;7.30;;;12.40;66.10;;;;;;5078088;28;20784;-69
2021/04/01 06:19:10;;;;;;;19.08;8.95;;;12.50;66.00;;;;;;5070995;28;20400;-74
2021/04/01 06:21:44;;;;;;;17.00;8.10;;;12.60;66.00;;;;;;5073430;28;20506;-74
2021/04/01 06:24:24;;;;;;;13.40;7.03;;;12.70;65.90;;;;;;5071222;28;20408;-74
2021/04/01 06:26:56;;;;;;;21.42;11.35;;;12.70;65.90;;;;;;5079703;28;20139;-69
2021/04/01 06:29:25;;;;;;;22.67;9.80;;;12.70;66.10;;;;;;5071697;28;20039;-69
2021/04/01 06:31:54;;;;;;;24.80;12.48;;;12.80;65.90;;;;;;5078543;28;20085;-69
2021/04/01 06:34:42;;;;;;;26.60;12.98;;;12.80;65.90;;;;;;5072322;28;20069;-69
2021/04/01 06:37:55;;;;;;;25.33;12.30;;;12.90;65.90;;;;;;5082867;28;20081;-69
2021/04/01 06:40:10;;;;;;;29.15;13.95;;;12.90;65.80;;;;;;5097664;28;20043;-68
2021/04/01 06:42:53;;;;;;;25.83;12.65;;;13.00;65.90;;;;;;5072744;28;20048;-68
2021/04/01 06:45:24;;;;;;;25.20;12.82;;;13.00;65.80;;;;;;5084713;28;20043;-68
2021/04/01 06:47:54;;;;;;;23.83;11.57;;;13.10;65.80;;;;;;5086062;28;20040;-69
2021/04/01 06:50:38;;;;;;;21.90;11.02;;;13.10;65.70;;;;;;5081601;28;20048;-68
2021/04/01 06:53:15;;;;;;;19.13;9.77;;;13.20;65.60;;;;;;5085800;28;20045;-69
2021/04/01 06:59:20;;;;;;;18.00;8.15;;;13.30;65.40;;;;;;5083692;28;20107;-69
2021/04/01 07:04:35;;;;;;;22.25;10.77;;;13.50;65.30;;;;;;5081531;28;20472;-69
2021/04/01 07:07:07;;;;;;;26.52;12.63;;;13.60;65.20;;;;;;5086319;28;20098;-70
2021/04/01 07:12:29;;;;;;;20.52;10.43;;;13.70;64.90;;;;;;5078982;28;20456;-71
2021/04/01 07:15:02;;;;;;;24.45;12.27;;;13.80;64.90;;;;;;5085029;28;20048;-71
2021/04/01 07:17:43;;;;;;;29.88;13.93;;;13.80;64.70;;;;;;5070178;28;20140;-71
2021/04/01 07:23:44;;;;;;;27.02;12.93;;;14.00;64.60;;;;;;5081462;28;20063;-76
2021/04/01 07:46:31;;;;;;;34.03;16.50;;;14.30;64.10;;;;;;5083622;28;20037;-77
2021/04/01 07:48:44;;;;;;;33.20;17.05;;;14.40;64.10;;;;;;5072668;28;20036;-76
2021/04/01 07:51:32;;;;;;;36.03;18.52;;;14.40;64.00;;;;;;5083924;28;20043;-76
2021/04/01 07:53:59;;;;;;;32.78;16.10;;;14.50;63.90;;;;;;5074169;28;20492;-76
2021/04/01 07:56:33;;;;;;;39.15;18.52;;;14.50;63.80;;;;;;5093556;28;20037;-76
2021/04/01 08:04:20;;;;;;;40.83;21.25;;;14.80;63.60;;;;;;5072491;28;20058;-74
2021/04/01 08:06:47;;;;;;;45.47;21.52;;;14.80;63.30;;;;;;5064345;28;20059;-75
2021/04/01 08:09:20;;;;;;;50.25;23.70;;;14.90;63.10;;;;;;5067463;28;20045;-73
2021/04/01 08:11:52;;;;;;;45.13;21.30;;;15.00;62.80;;;;;;5081146;28;20040;-74
2021/04/01 08:14:35;;;;;;;47.70;23.05;;;15.00;62.70;;;;;;5076919;28;20049;-77
2021/04/01 08:17:11;;;;;;;;;;;15.10;62.40;;;;;;5081745;28;20031;-73
2021/04/01 08:19:39;;;;;;;49.42;24.30;;;15.00;62.30;;;;;;5079009;28;19924;-73
2021/04/01 08:22:29;;;;;;;49.88;24.20;;;15.00;62.20;;;;;;5088318;28;20033;-73
2021/04/01 08:25:18;;;;;;;49.55;25.25;;;15.00;62.00;;;;;;5093237;28;20040;-75
2021/04/01 08:28:57;;;;;;;56.03;28.23;;;15.00;61.90;;;;;;5076636;28;20041;-74
2021/04/01 08:37:15;;;;;;;50.78;25.33;;;15.00;61.50;;;;;;5087611;28;20120;-74
2021/04/01 08:40:02;;;;;;;49.05;24.65;;;15.00;61.50;;;;;;5083444;28;20032;-75
2021/04/01 08:43:36;;;;;;;48.65;24.27;;;15.00;61.50;;;;;;5078673;28;20032;-74
2021/04/01 08:46:41;;;;;;;49.53;25.63;;;15.10;61.30;;;;;;5089610;28;20113;-74
2021/04/01 08:49:37;;;;;;;53.83;26.00;;;15.20;61.10;;;;;;5076034;28;20483;-74
2021/04/01 08:52:20;;;;;;;57.45;29.83;;;15.20;60.90;;;;;;5074185;28;20098;-74
2021/04/01 08:55:04;;;;;;;55.25;30.15;;;15.20;60.70;;;;;;5087985;28;20495;-74
2021/04/01 08:57:56;;;;;;;53.13;26.88;;;15.20;60.60;;;;;;5086755;28;20036;-75
2021/04/01 09:00:27;;;;;;;57.38;29.50;;;15.30;60.60;;;;;;5090092;28;20036;-73
2021/04/01 09:02:55;;;;;;;52.72;26.45;;;15.30;60.40;;;;;;5081384;28;20059;-74
2021/04/01 09:05:22;;;;;;;56.45;29.70;;;15.30;60.40;;;;;;5085514;28;20449;-74
2021/04/01 09:07:53;;;;;;;51.80;27.45;;;15.30;60.30;;;;;;5082937;28;20429;-74
2021/04/01 09:10:23;;;;;;;51.45;26.45;;;15.40;60.10;;;;;;5072135;28;20154;-74
2021/04/01 09:13:19;;;;;;;49.30;25.30;;;15.40;60.00;;;;;;5084310;28;20115;-74
2021/04/01 09:18:28;;;;;;;57.50;27.25;;;15.50;59.60;;;;;;5088186;28;20140;-74
2021/04/01 09:20:57;;;;;;;55.28;26.38;;;15.60;59.40;;;;;;5085713;28;20047;-74
2021/04/01 09:23:36;;;;;;;50.97;27.30;;;15.70;59.40;;;;;;5073360;28;20037;-73
2021/04/01 09:26:05;;;;;;;51.88;27.38;;;15.60;59.10;;;;;;5080846;28;20036;-67
2021/04/01 09:28:43;;;;;;;51.90;29.67;;;15.70;59.10;;;;;;5079458;28;20043;-68
2021/04/01 09:31:14;;;;;;;53.92;27.70;;;15.70;58.80;;;;;;5085723;28;20036;-68
2021/04/01 09:33:42;;;;;;;49.95;27.70;;;15.70;58.80;;;;;;5088636;28;20063;-68
2021/04/01 09:36:09;;;;;;;56.03;29.90;;;15.60;58.90;;;;;;5071704;28;20045;-68
2021/04/01 09:38:44;;;;;;;57.95;31.08;;;15.60;59.00;;;;;;5079720;28;20115;-68
2021/04/01 09:41:27;;;;;;;54.35;29.48;;;15.60;59.10;;;;;;5073376;28;20044;-68
2021/04/01 09:43:54;;;;;;;51.65;28.10;;;15.60;59.00;;;;;;5071611;28;20040;-68
2021/04/01 09:46:23;;;;;;;52.83;28.25;;;15.60;59.10;;;;;;5060868;28;20047;-69
2021/04/01 09:49:09;;;;;;;49.55;26.38;;;15.70;59.10;;;;;;5088713;28;20085;-69
2021/04/01 09:51:36;;;;;;;50.47;27.95;;;15.70;59.10;;;;;;5083938;28;20051;-69
2021/04/01 09:54:03;;;;;;;50.83;28.42;;;15.70;59.20;;;;;;5081624;28;20044;-69
2021/04/01 09:56:32;;;;;;;45.10;26.95;;;15.70;59.20;;;;;;5072726;28;20581;-69
2021/04/01 09:59:00;;;;;;;53.80;28.83;;;15.70;59.30;;;;;;5077085;28;20040;-74
2021/04/01 10:01:40;;;;;;;45.72;25.48;;;15.70;59.30;;;;;;5070816;28;20036;-74
2021/04/01 10:04:16;;;;;;;47.28;26.52;;;15.70;59.40;;;;;;5071146;28;20040;-74
2021/04/01 10:06:49;;;;;;;41.70;24.00;;;15.70;59.60;;;;;;5072274;28;20051;-74
2021/04/01 10:09:28;;;;;;;37.35;21.65;;;15.70;59.60;;;;;;5070872;28;20071;-74
2021/04/01 10:12:03;;;;;;;35.47;19.83;;;15.70;59.50;;;;;;5071525;28;20048;-68
2021/04/01 10:14:30;;;;;;;35.60;18.77;;;15.70;59.40;;;;;;5080379;28;20048;-73
2021/04/01 10:17:21;;;;;;;29.45;16.00;;;15.70;59.40;;;;;;5082474;28;20490;-74
2021/04/01 10:19:59;;;;;;;25.15;13.00;;;15.80;59.00;;;;;;5070676;28;20071;-74
2021/04/01 10:22:35;;;;;;;18.83;11.65;;;15.80;58.70;;;;;;5088412;28;20059;-74
2021/04/01 10:30:18;;;;;;;14.10;7.43;;;16.30;57.50;;;;;;5077858;28;20552;-74
2021/04/01 10:33:06;;;;;;;11.75;6.07;;;16.30;57.30;;;;;;5082932;28;20043;-74
2021/04/01 10:35:36;;;;;;;12.75;5.53;;;16.30;57.20;;;;;;5088497;28;20048;-74
2021/04/01 10:38:04;;;;;;;10.52;5.30;;;16.20;57.30;;;;;;5084449;28;20499;-70
2021/04/01 10:40:33;;;;;;;9.50;4.20;;;16.40;57.20;;;;;;5088584;28;20044;-70
2021/04/01 10:43:10;;;;;;;11.25;5.28;;;16.60;56.60;;;;;;5063937;28;20048;-69
2021/04/01 10:45:39;;;;;;;12.98;6.15;;;16.80;56.20;;;;;;5091821;28;20115;-69
2021/04/01 10:48:08;;;;;;;14.93;5.65;;;16.90;55.70;;;;;;5083298;28;20052;-70
2021/04/01 10:50:35;;;;;;;12.63;4.93;;;17.00;55.50;;;;;;5090434;28;20058;-69
2021/04/01 10:53:02;;;;;;;10.43;4.13;;;17.10;55.40;;;;;;5089560;28;20044;-73
2021/04/01 10:55:31;;;;;;;8.80;3.50;;;17.10;55.30;;;;;;5090239;28;20518;-71
2021/04/01 10:58:11;;;;;;;11.45;4.03;;;16.90;55.60;;;;;;5086792;28;20032;-69
2021/04/01 11:00:38;;;;;;;7.75;3.95;;;16.70;56.10;;;;;;5065551;28;20067;-70
2021/04/01 11:03:11;;;;;;;5.30;2.97;;;16.50;56.60;;;;;;5083704;28;20056;-69
2021/04/01 11:05:41;;;;;;;5.93;2.08;;;16.40;57.00;;;;;;5073252;28;20040;-73
2021/04/01 11:08:10;;;;;;;4.97;1.40;;;16.30;57.20;;;;;;5092104;28;20052;-75
2021/04/01 11:10:38;;;;;;;6.15;1.60;;;16.30;57.90;;;;;;5089746;28;20110;-73
2021/04/01 11:13:07;;;;;;;4.53;1.67;;;16.30;57.50;;;;;;5077684;28;20041;-68
2021/04/01 11:15:41;;;;;;;7.38;2.42;;;16.30;57.60;;;;;;5070294;28;20044;-74
2021/04/01 11:18:15;;;;;;;5.03;1.85;;;16.20;57.60;;;;;;5063070;28;20127;-73
2021/04/01 11:20:48;;;;;;;6.43;1.60;;;16.20;57.70;;;;;;5085561;28;20086;-73
2021/04/01 11:23:20;;;;;;;4.88;1.63;;;16.20;57.70;;;;;;5083873;28;20040;-70
2021/04/01 11:25:52;;;;;;;4.93;1.65;;;16.30;57.60;;;;;;5074265;28;20407;-73
2021/04/01 11:28:32;;;;;;;4.53;1.25;;;16.40;57.50;;;;;;5084824;28;20047;-74
2021/04/01 11:31:00;;;;;;;5.05;1.23;;;16.40;57.40;;;;;;5089724;28;20046;-73
2021/04/01 11:33:27;;;;;;;4.63;0.80;;;16.40;57.50;;;;;;5079792;28;20443;-70
2021/04/01 11:36:15;;;;;;;3.40;1.10;;;16.50;57.40;;;;;;5093974;28;20154;-70
2021/04/01 11:38:52;;;;;;;5.28;1.08;;;16.50;57.30;;;;;;5093191;28;20040;-70
2021/04/01 11:41:47;;;;;;;3.30;0.93;;;16.40;57.20;;;;;;5084495;28;20045;-70
2021/04/01 11:44:19;;;;;;;5.13;1.20;;;16.50;57.30;;;;;;5076967;28;20114;-70
2021/04/01 11:46:46;;;;;;;7.95;1.05;;;16.40;57.10;;;;;;5080873;28;20395;-70
2021/04/01 11:49:15;;;;;;;6.60;0.90;;;16.40;57.10;;;;;;5091458;28;20048;-70
2021/04/01 11:51:42;;;;;;;5.03;1.00;;;16.40;57.20;;;;;;5086150;28;20045;-70
2021/04/01 11:54:11;;;;;;;4.10;0.80;;;16.40;57.30;;;;;;5086291;28;20066;-70
2021/04/01 11:56:44;;;;;;;3.35;0.77;;;16.50;57.30;;;;;;5076689;28;20576;-70
2021/04/01 11:59:13;;;;;;;5.22;0.95;;;16.50;57.20;;;;;;5090915;28;20056;-70
2021/04/01 12:01:56;;;;;;;4.63;1.13;;;16.50;57.10;;;;;;5093392;28;20089;-70
2021/04/01 12:04:25;;;;;;;2.22;0.45;;;16.60;57.00;;;;;;5087359;28;20403;-70
2021/04/01 12:06:53;;;;;;;4.32;0.60;;;16.60;57.00;;;;;;5093317;28;20074;-69
2021/04/01 12:09:21;;;;;;;2.53;0.52;;;16.70;56.90;;;;;;5078402;28;20053;-74
2021/04/01 12:11:47;;;;;;;7.35;1.10;;;16.60;57.00;;;;;;5081286;28;20047;-70
2021/04/01 12:14:18;;;;;;;3.60;0.98;;;16.60;57.00;;;;;;5090209;28;20044;-70
2021/04/01 12:16:45;;;;;;;5.22;1.05;;;16.50;57.20;;;;;;5093043;28;20032;-70
2021/04/01 12:19:12;;;;;;;5.43;0.88;;;16.40;57.30;;;;;;5080621;28;20045;-69
2021/04/01 12:21:43;;;;;;;6.18;0.88;;;16.30;57.50;;;;;;5074891;28;20541;-70
2021/04/01 12:24:10;;;;;;;5.95;1.00;;;16.30;57.60;;;;;;5074496;28;20032;-70
2021/04/01 12:27:03;;;;;;;2.85;0.60;;;16.40;57.50;;;;;;5082388;28;20123;-70
2021/04/01 12:29:29;;;;;;;5.90;0.68;;;16.50;57.50;;;;;;5083889;28;20117;-70
2021/04/01 12:31:57;;;;;;;4.05;0.93;;;16.40;57.70;;;;;;5090103;28;20051;-70
2021/04/01 12:34:29;;;;;;;3.67;0.80;;;16.40;57.80;;;;;;5080149;28;20350;-69
2021/04/01 12:37:04;;;;;;;7.93;1.40;;;16.30;57.80;;;;;;5086728;28;20052;-69
2021/04/01 12:39:33;;;;;;;5.32;0.70;;;16.20;57.70;;;;;;5097797;28;20423;-69
2021/04/01 12:42:00;;;;;;;4.00;0.75;;;16.20;57.70;;;;;;5088774;28;20097;-69
2021/04/01 12:44:37;;;;;;;2.67;0.75;;;16.10;57.70;;;;;;5090959;28;20040;-69
2021/04/01 12:47:05;;;;;;;3.28;0.60;;;16.00;57.60;;;;;;5090449;28;20048;-70
2021/04/01 12:49:36;;;;;;;0.80;0.40;;;16.00;57.80;;;;;;5091130;28;20495;-70
2021/04/01 12:52:06;;;;;;;2.35;0.45;;;16.00;57.90;;;;;;5089423;28;20047;-70
2021/04/01 12:54:40;;;;;;;3.50;0.70;;;15.90;57.90;;;;;;5090748;28;20066;-70
2021/04/01 12:57:14;;;;;;;4.00;0.65;;;15.90;58.00;;;;;;5092744;28;20063;-70
2021/04/01 12:59:48;;;;;;;2.10;0.60;;;15.80;58.20;;;;;;5084640;28;20125;-70
2021/04/01 13:02:18;;;;;;;5.30;0.82;;;15.80;58.20;;;;;;5089790;28;20036;-75
2021/04/01 13:04:58;;;;;;;5.90;0.70;;;15.90;58.30;;;;;;5087700;28;20472;-74
2021/04/01 13:07:31;;;;;;;4.18;0.90;;;15.90;58.40;;;;;;5066549;28;20043;-73
2021/04/01 13:10:30;;;;;;;2.58;0.80;;;15.80;58.60;;;;;;5086986;28;20043;-76
2021/04/01 13:12:44;;;;;;;2.90;0.70;;;15.80;58.80;;;;;;5087282;28;20075;-75
2021/04/01 13:15:14;;;;;;;2.85;1.15;;;15.70;58.90;;;;;;5085684;28;20127;-77
2021/04/01 13:17:41;;;;;;;2.78;0.82;;;15.80;58.90;;;;;;5086391;28;20040;-75
2021/04/01 13:20:13;;;;;;;3.58;0.60;;;15.70;59.00;;;;;;5090499;28;20143;-70
2021/04/01 13:22:57;;;;;;;4.63;0.90;;;15.70;58.90;;;;;;5067597;28;20089;-70
2021/04/01 13:25:24;;;;;;;2.92;0.73;;;15.70;58.80;;;;;;5082213;28;20041;-70
2021/04/01 13:27:52;;;;;;;5.97;0.80;;;15.60;58.80;;;;;;5056135;28;20048;-70
2021/04/01 13:30:23;;;;;;;3.70;0.60;;;15.60;58.70;;;;;;5083379;28;20040;-70
2021/04/01 13:40:22;;;;;;;4.30;0.70;;;15.60;58.30;;;;;;5085625;28;20044;-73
2021/04/01 13:42:56;;;;;;;2.45;0.45;;;15.50;58.00;;;;;;5088305;28;20050;-69
2021/04/01 13:45:26;;;;;;;3.08;0.50;;;15.50;57.70;;;;;;5087152;28;20046;-69
2021/04/01 13:48:01;;;;;;;1.67;0.30;;;15.60;57.40;;;;;;5072033;28;20044;-69
2021/04/01 13:50:32;;;;;;;2.97;0.70;;;15.60;57.10;;;;;;5085685;28;20040;-69
2021/04/01 13:56:08;;;;;;;2.80;0.50;;;15.50;56.80;;;;;;5089460;28;20051;-70
2021/04/01 13:59:19;;;;;;;4.35;0.60;;;15.60;56.60;;;;;;5089707;28;20399;-69
2021/04/01 14:09:58;;;;;;;3.67;0.50;;;15.60;55.90;;;;;;5079163;28;20036;-70
2021/04/01 14:12:26;;;;;;;4.78;0.47;;;15.60;55.10;;;;;;5087647;28;20047;-70
2021/04/01 14:14:52;;;;;;;2.65;0.55;;;15.60;54.70;;;;;;5087250;28;20510;-70
2021/04/01 14:17:19;;;;;;;4.10;0.82;;;15.60;54.30;;;;;;5075764;28;20041;-69
2021/04/01 14:19:45;;;;;;;4.07;0.60;;;15.60;53.60;;;;;;5085873;28;20032;-71
2021/04/01 14:22:15;;;;;;;4.00;0.40;;;15.60;52.70;;;;;;5070888;28;20036;-70
2021/04/01 14:24:50;;;;;;;2.58;0.38;;;15.50;52.90;;;;;;5088297;28;20036;-70
2021/04/01 14:29:55;;;;;;;4.50;0.40;;;15.50;52.60;;;;;;5087963;28;20043;-69
2021/04/01 14:32:28;;;;;;;3.60;0.38;;;15.50;52.50;;;;;;5081362;28;20075;-70
2021/04/01 14:34:58;;;;;;;2.58;0.50;;;15.50;52.50;;;;;;5065643;28;20052;-70
2021/04/01 14:37:31;;;;;;;1.90;0.60;;;15.40;51.90;;;;;;5081311;28;20077;-70
2021/04/01 14:39:59;;;;;;;6.25;0.68;;;15.40;51.90;;;;;;5080588;28;20044;-70
2021/04/01 14:42:44;;;;;;;3.42;0.50;;;15.40;51.80;;;;;;5075534;28;20035;-69
2021/04/01 14:45:12;;;;;;;2.53;0.40;;;15.50;51.70;;;;;;5079601;28;20094;-70
2021/04/01 14:47:43;;;;;;;2.83;0.30;;;15.40;51.50;;;;;;5085908;28;20039;-70